createdAt,value
2017-12-25T00:01:01.979Z,19.12
2017-12-25T00:03:29.502Z,23.52
2017-12-25T00:05:57.035Z,17.90
2017-12-25T00:08:24.540Z,18.10
2017-12-25T00:10:52.050Z,21.17
2017-12-25T00:13:19.519Z,19.98
2017-12-25T00:15:47.066Z,17.90
2017-12-25T00:18:14.534Z,16.35
2017-12-25T00:20:42.021Z,16.55
2017-12-25T00:23:09.510Z,17.00
2017-12-25T00:25:37.002Z,13.98
2017-12-25T00:28:04.477Z,15.80
2017-12-25T00:30:32.730Z,15.57
2017-12-25T00:33:00.219Z,16.23
2017-12-25T00:35:28.466Z,17.40
2017-12-25T00:37:55.978Z,18.92
2017-12-25T00:40:23.446Z,16.73
2017-12-25T00:42:50.907Z,17.92
2017-12-25T00:45:18.406Z,17.17
2017-12-25T00:47:45.897Z,16.75
2017-12-25T00:50:13.369Z,14.40
2017-12-25T00:52:40.839Z,15.60
2017-12-25T00:55:08.341Z,14.27
2017-12-25T00:57:35.838Z,19.25
2017-12-25T01:00:03.290Z,17.05
2017-12-25T01:02:30.789Z,15.10
2017-12-25T01:04:58.254Z,14.27
2017-12-25T01:07:25.761Z,16.48
2017-12-25T01:09:53.231Z,15.30
2017-12-25T01:12:20.739Z,14.75
2017-12-25T01:14:48.218Z,15.77
2017-12-25T01:17:15.684Z,15.15
2017-12-25T01:19:43.950Z,15.75
2017-12-25T01:22:12.185Z,16.70
2017-12-25T01:24:39.714Z,15.32
2017-12-25T01:27:07.182Z,17.05
2017-12-25T01:29:34.701Z,17.20
2017-12-25T01:32:02.937Z,18.75
2017-12-25T01:34:30.461Z,16.77
2017-12-25T01:36:57.940Z,15.20
2017-12-25T01:39:25.399Z,18.45
2017-12-25T01:41:52.912Z,18.45
2017-12-25T01:44:20.378Z,19.20
2017-12-25T01:46:59.792Z,18.17
2017-12-25T01:49:27.245Z,18.87
2017-12-25T01:51:54.722Z,20.20
2017-12-25T01:54:22.210Z,17.12
2017-12-25T01:56:49.732Z,18.12
2017-12-25T02:02:22.929Z,17.30
2017-12-25T02:05:12.120Z,18.80
2017-12-25T02:08:00.479Z,21.83
2017-12-25T02:10:28.779Z,23.10
2017-12-25T02:12:57.009Z,21.12
2017-12-25T02:15:24.498Z,17.08
2017-12-25T02:17:52.757Z,18.77
2017-12-25T02:20:20.258Z,17.85
2017-12-25T02:22:47.750Z,20.62
2017-12-25T02:25:15.266Z,18.62
2017-12-25T02:27:43.499Z,21.77
2017-12-25T02:30:10.959Z,21.08
2017-12-25T02:32:38.454Z,20.77
2017-12-25T02:35:05.933Z,20.80
2017-12-25T02:37:33.488Z,19.23
2017-12-25T02:40:00.918Z,21.90
2017-12-25T02:42:29.174Z,22.65
2017-12-25T02:44:56.670Z,21.40
2017-12-25T02:47:24.136Z,19.55
2017-12-25T02:49:51.652Z,23.50
2017-12-25T02:52:19.119Z,18.80
2017-12-25T02:54:46.580Z,19.12
2017-12-25T02:57:14.839Z,19.35
2017-12-25T02:59:42.315Z,18.08
2017-12-25T03:02:10.575Z,20.62
2017-12-25T03:04:38.799Z,22.23
2017-12-25T03:07:06.272Z,17.15
2017-12-25T03:09:33.829Z,20.23
2017-12-25T03:12:01.281Z,20.15
2017-12-25T03:14:28.790Z,20.33
2017-12-25T03:16:56.258Z,22.30
2017-12-25T03:19:23.758Z,22.08
2017-12-25T03:21:51.255Z,19.87
2017-12-25T03:24:18.737Z,22.65
2017-12-25T03:26:47.007Z,21.90
2017-12-25T03:29:14.476Z,21.73
2017-12-25T03:31:42.733Z,25.17
2017-12-25T03:34:10.207Z,22.00
2017-12-25T03:36:38.479Z,22.77
2017-12-25T03:39:05.967Z,30.77
2017-12-25T03:41:33.431Z,24.95
2017-12-25T03:44:00.930Z,28.27
2017-12-25T03:46:28.386Z,24.00
2017-12-25T03:48:55.857Z,23.42
2017-12-25T03:51:23.341Z,20.45
2017-12-25T03:53:51.588Z,21.15
2017-12-25T03:56:19.074Z,21.55
2017-12-25T03:58:47.324Z,20.65
2017-12-25T04:01:14.818Z,23.67
2017-12-25T04:03:43.486Z,21.35
2017-12-25T04:06:11.750Z,22.05
2017-12-25T04:08:39.246Z,18.45
2017-12-25T04:11:07.462Z,21.60
2017-12-25T04:13:34.989Z,21.85
2017-12-25T04:16:02.444Z,20.05
2017-12-25T04:18:29.922Z,19.05
2017-12-25T04:20:57.410Z,17.42
2017-12-25T04:23:24.920Z,22.45
2017-12-25T04:25:53.186Z,20.42
2017-12-25T04:28:21.426Z,24.58
2017-12-25T04:30:48.940Z,22.45
2017-12-25T04:33:16.442Z,17.25
2017-12-25T04:35:43.920Z,18.55
2017-12-25T04:38:11.398Z,19.67
2017-12-25T04:40:39.655Z,19.17
2017-12-25T04:43:07.158Z,20.88
2017-12-25T04:45:34.640Z,20.23
2017-12-25T04:48:02.087Z,17.17
2017-12-25T04:50:29.617Z,20.05
2017-12-25T04:52:57.844Z,19.23
2017-12-25T04:55:25.338Z,16.52
2017-12-25T04:57:53.586Z,20.67
2017-12-25T05:00:21.062Z,19.15
2017-12-25T05:02:48.555Z,15.70
2017-12-25T05:05:16.023Z,16.35
2017-12-25T05:07:43.519Z,20.85
2017-12-25T05:10:11.006Z,15.27
2017-12-25T05:12:39.299Z,18.52
2017-12-25T05:15:07.516Z,18.05
2017-12-25T05:17:34.997Z,19.83
2017-12-25T05:20:02.502Z,20.15
2017-12-25T05:22:29.958Z,18.55
2017-12-25T05:24:57.466Z,18.12
2017-12-25T05:27:24.921Z,20.00
2017-12-25T05:29:52.386Z,19.10
2017-12-25T05:32:19.886Z,23.95
2017-12-25T05:34:47.360Z,22.55
2017-12-25T05:37:14.847Z,26.25
2017-12-25T05:39:42.311Z,25.12
2017-12-25T05:42:09.838Z,22.00
2017-12-25T05:44:37.311Z,24.45
2017-12-25T05:47:04.802Z,25.05
2017-12-25T05:49:32.320Z,20.88
2017-12-25T05:51:59.782Z,22.42
2017-12-25T05:54:27.287Z,25.62
2017-12-25T05:56:54.747Z,21.15
2017-12-25T05:59:22.211Z,21.80
2017-12-25T06:01:50.484Z,22.70
2017-12-25T06:04:18.750Z,21.87
2017-12-25T06:06:46.251Z,19.67
2017-12-25T06:09:13.743Z,20.10
2017-12-25T06:11:41.219Z,19.67
2017-12-25T06:14:08.762Z,20.90
2017-12-25T06:16:36.941Z,17.92
2017-12-25T06:19:04.443Z,17.17
2017-12-25T06:21:32.696Z,17.23
2017-12-25T06:24:00.159Z,15.80
2017-12-25T06:26:27.646Z,14.82
2017-12-25T06:28:55.858Z,18.20
2017-12-25T06:31:23.361Z,15.98
2017-12-25T06:33:52.322Z,16.48
2017-12-25T06:36:19.826Z,18.98
2017-12-25T06:38:47.307Z,20.60
2017-12-25T06:41:14.805Z,17.00
2017-12-25T06:43:42.298Z,16.73
2017-12-25T06:46:10.530Z,14.38
2017-12-25T06:48:38.010Z,16.33
2017-12-25T06:51:05.520Z,13.02
2017-12-25T06:53:32.985Z,14.77
2017-12-25T06:56:00.500Z,15.50
2017-12-25T06:58:27.961Z,13.15
2017-12-25T07:00:56.207Z,13.82
2017-12-25T07:03:23.693Z,12.80
2017-12-25T07:05:51.202Z,12.85
2017-12-25T07:08:18.663Z,10.70
2017-12-25T07:10:46.132Z,10.50
2017-12-25T07:13:13.634Z,10.23
2017-12-25T07:15:41.890Z,10.88
2017-12-25T07:18:09.399Z,12.57
2017-12-25T07:20:36.867Z,10.35
2017-12-25T07:23:04.315Z,9.68
2017-12-25T07:25:31.809Z,11.43
2017-12-25T07:27:59.399Z,12.10
2017-12-25T07:30:27.688Z,10.38
2017-12-25T07:32:55.130Z,12.85
2017-12-25T07:35:23.354Z,14.45
2017-12-25T07:37:50.858Z,12.10
2017-12-25T07:40:18.323Z,12.60
2017-12-25T07:42:46.547Z,10.23
2017-12-25T07:45:14.036Z,12.00
2017-12-25T07:47:41.525Z,16.42
2017-12-25T07:50:09.774Z,14.38
2017-12-25T07:52:37.245Z,13.32
2017-12-25T07:55:04.747Z,13.10
2017-12-25T07:57:32.207Z,17.52
2017-12-25T07:59:59.699Z,16.02
2017-12-25T08:02:27.179Z,17.30
2017-12-25T08:04:54.631Z,15.98
2017-12-25T08:07:22.124Z,14.32
2017-12-25T08:09:49.611Z,13.65
2017-12-25T08:12:17.062Z,15.20
2017-12-25T08:14:44.554Z,13.00
2017-12-25T08:17:12.049Z,14.55
2017-12-25T08:19:40.303Z,12.73
2017-12-25T08:22:07.752Z,14.65
2017-12-25T08:24:35.279Z,15.35
2017-12-25T08:27:02.750Z,17.45
2017-12-25T08:29:30.211Z,15.13
2017-12-25T08:31:57.706Z,17.08
2017-12-25T08:34:25.945Z,15.93
2017-12-25T08:36:53.444Z,19.10
2017-12-25T08:39:21.669Z,13.80
2017-12-25T08:41:49.178Z,19.10
2017-12-25T08:44:17.445Z,21.05
2017-12-25T08:46:44.922Z,17.90
2017-12-25T08:49:13.197Z,14.45
2017-12-25T08:51:41.431Z,16.95
2017-12-25T08:54:08.913Z,19.45
2017-12-25T08:56:37.195Z,16.12
2017-12-25T08:59:04.668Z,17.95
2017-12-25T09:01:32.919Z,21.40
2017-12-25T09:04:00.406Z,14.70
2017-12-25T09:06:28.683Z,16.55
2017-12-25T09:08:56.939Z,18.58
2017-12-25T09:11:24.396Z,16.95
2017-12-25T09:13:51.897Z,16.58
2017-12-25T09:16:19.359Z,19.12
2017-12-25T09:18:46.859Z,17.77
2017-12-25T09:21:14.335Z,15.02
2017-12-25T09:23:46.250Z,14.80
2017-12-25T09:26:13.749Z,17.85
2017-12-25T09:28:41.243Z,21.23
2017-12-25T09:31:08.729Z,17.62
2017-12-25T09:33:36.182Z,16.05
2017-12-25T09:36:03.666Z,15.25
2017-12-25T09:38:31.167Z,18.80
2017-12-25T09:40:59.416Z,19.85
2017-12-25T09:43:26.903Z,17.58
2017-12-25T09:45:55.163Z,16.98
2017-12-25T09:48:23.410Z,15.90
2017-12-25T09:50:50.903Z,19.02
2017-12-25T09:53:19.209Z,19.42
2017-12-25T09:55:46.668Z,18.95
2017-12-25T09:58:14.133Z,17.00
2017-12-25T10:00:41.632Z,21.65
2017-12-25T10:03:09.095Z,19.23
2017-12-25T10:05:37.379Z,20.52
2017-12-25T10:08:04.841Z,23.33
2017-12-25T10:10:32.319Z,19.25
2017-12-25T10:13:00.582Z,17.95
2017-12-25T10:15:28.054Z,18.98
2017-12-25T10:17:56.303Z,22.85
2017-12-25T10:20:23.813Z,26.55
2017-12-25T10:22:51.289Z,21.40
2017-12-25T10:25:18.790Z,21.87
2017-12-25T10:27:47.052Z,21.58
2017-12-25T10:30:14.534Z,19.40
2017-12-25T10:32:42.766Z,20.88
2017-12-25T10:35:10.271Z,20.60
2017-12-25T10:37:38.541Z,20.92
2017-12-25T10:40:06.777Z,23.10
2017-12-25T10:42:34.263Z,21.27
2017-12-25T10:45:01.751Z,18.33
2017-12-25T10:47:29.242Z,22.02
2017-12-25T10:49:56.720Z,27.33
2017-12-25T10:52:24.230Z,27.33
2017-12-25T10:54:51.745Z,29.60
2017-12-25T10:57:19.226Z,27.23
2017-12-25T10:59:47.507Z,31.02
2017-12-25T11:02:14.967Z,28.45
2017-12-25T11:04:43.238Z,32.95
2017-12-25T11:07:11.508Z,32.95
2017-12-25T11:09:38.970Z,27.62
2017-12-25T11:12:07.238Z,32.97
2017-12-25T11:14:34.756Z,35.53
2017-12-25T11:17:02.239Z,35.08
2017-12-25T11:19:29.718Z,33.97
2017-12-25T11:21:57.220Z,32.85
2017-12-25T11:24:24.718Z,30.15
2017-12-25T11:26:52.244Z,34.22
2017-12-25T11:29:19.699Z,28.25
2017-12-25T11:31:47.175Z,27.35
2017-12-25T11:34:14.668Z,27.75
2017-12-25T11:36:42.126Z,26.65
2017-12-25T11:39:09.615Z,26.33
2017-12-25T11:41:37.087Z,25.27
2017-12-25T11:44:04.591Z,25.75
2017-12-25T11:46:32.074Z,24.40
2017-12-25T11:49:00.343Z,28.40
2017-12-25T11:51:27.858Z,27.87
2017-12-25T11:53:55.363Z,27.60
2017-12-25T11:56:22.851Z,28.20
2017-12-25T11:58:50.463Z,27.02
2017-12-25T12:01:17.970Z,30.35
2017-12-25T12:03:46.184Z,26.58
2017-12-25T12:06:13.660Z,25.40
2017-12-25T12:08:41.161Z,23.58
2017-12-25T12:11:08.638Z,24.30
2017-12-25T12:13:36.137Z,27.27
2017-12-25T12:16:03.629Z,24.48
2017-12-25T12:18:31.863Z,32.70
2017-12-25T12:20:59.366Z,33.45
2017-12-25T12:23:27.612Z,31.98
2017-12-25T12:25:55.114Z,31.08
2017-12-25T12:28:22.571Z,37.28
2017-12-25T12:30:50.027Z,32.22
2017-12-25T12:33:17.527Z,31.75
2017-12-25T12:35:44.985Z,38.53
2017-12-25T12:38:12.494Z,34.58
2017-12-25T12:40:40.727Z,38.20
2017-12-25T12:43:08.226Z,34.05
2017-12-25T12:45:35.704Z,31.30
2017-12-25T12:48:03.207Z,28.60
2017-12-25T12:50:30.699Z,36.63
2017-12-25T12:52:58.951Z,32.92
2017-12-25T12:55:26.475Z,31.48
2017-12-25T12:57:53.944Z,31.52
2017-12-25T13:00:21.497Z,32.47
2017-12-25T13:02:48.931Z,32.40
2017-12-25T13:05:16.422Z,32.22
2017-12-25T13:07:43.931Z,34.13
2017-12-25T13:10:12.162Z,32.13
2017-12-25T13:12:39.666Z,35.17
2017-12-25T13:15:07.890Z,35.40
2017-12-25T13:17:35.399Z,35.63
2017-12-25T13:20:03.630Z,35.75
2017-12-25T13:22:31.109Z,32.88
2017-12-25T13:24:58.610Z,37.83
2017-12-25T13:27:26.074Z,39.58
2017-12-25T13:29:53.547Z,36.05
2017-12-25T13:32:21.052Z,39.17
2017-12-25T13:34:48.519Z,42.00
2017-12-25T13:37:16.801Z,37.72
2017-12-25T13:39:45.023Z,40.60
2017-12-25T13:42:12.487Z,38.92
2017-12-25T13:44:39.988Z,35.72
2017-12-25T13:47:08.229Z,37.63
2017-12-25T13:49:35.722Z,38.15
2017-12-25T13:52:03.960Z,41.13
2017-12-25T13:54:31.461Z,43.97
2017-12-25T13:56:59.695Z,46.90
2017-12-25T13:59:27.199Z,40.12
2017-12-25T14:01:55.469Z,43.03
2017-12-25T14:04:23.698Z,42.35
2017-12-25T14:06:51.151Z,40.55
2017-12-25T14:09:18.660Z,36.63
2017-12-25T14:11:46.138Z,38.55
2017-12-25T14:14:13.627Z,38.55
2017-12-25T14:16:41.106Z,38.90
2017-12-25T14:19:08.629Z,36.03
2017-12-25T14:21:36.082Z,40.30
2017-12-25T14:24:03.571Z,37.63
2017-12-25T14:26:31.097Z,34.00
2017-12-25T14:28:58.568Z,39.30
2017-12-25T14:31:26.043Z,35.25
2017-12-25T14:33:53.598Z,40.03
2017-12-25T14:36:21.079Z,37.30
2017-12-25T14:38:48.594Z,38.10
2017-12-25T14:41:16.062Z,37.88
2017-12-25T14:43:43.550Z,37.53
2017-12-25T14:46:11.051Z,41.17
2017-12-25T14:48:39.278Z,41.22
2017-12-25T14:51:06.799Z,41.70
2017-12-25T14:53:35.047Z,45.67
2017-12-25T14:56:02.519Z,37.40
2017-12-25T14:58:30.795Z,41.22
2017-12-25T15:00:59.074Z,41.10
2017-12-25T15:03:33.294Z,36.38
2017-12-25T15:06:12.335Z,39.63
2017-12-25T15:08:46.781Z,39.90
2017-12-25T15:11:32.702Z,36.72
2017-12-25T15:14:06.343Z,38.28
2017-12-25T15:16:39.948Z,44.58
2017-12-25T15:19:11.462Z,42.20
2017-12-25T15:21:39.800Z,38.33
2017-12-25T15:26:45.799Z,38.95
2017-12-25T15:29:13.299Z,35.58
2017-12-25T15:31:41.527Z,30.95
2017-12-25T15:34:09.023Z,40.03
2017-12-25T15:36:36.550Z,32.95
2017-12-25T15:39:04.046Z,34.30
2017-12-25T15:41:32.283Z,34.72
2017-12-25T15:43:59.790Z,37.33
2017-12-25T15:46:28.070Z,37.28
2017-12-25T15:48:56.311Z,35.85
2017-12-25T15:51:23.805Z,32.47
2017-12-25T15:53:52.091Z,37.78
2017-12-25T15:56:20.347Z,31.60
2017-12-25T15:58:48.619Z,34.72
2017-12-25T16:01:16.100Z,30.85
2017-12-25T16:03:44.332Z,37.70
2017-12-25T16:06:11.820Z,36.90
2017-12-25T16:08:40.050Z,29.52
2017-12-25T16:11:07.556Z,35.03
2017-12-25T16:13:35.800Z,33.60
2017-12-25T16:16:03.262Z,33.25
2017-12-25T16:18:30.749Z,33.85
2017-12-25T16:20:58.984Z,31.05
2017-12-25T16:23:26.501Z,38.08
2017-12-25T16:25:54.726Z,33.50
2017-12-25T16:28:22.244Z,34.17
2017-12-25T16:30:49.721Z,35.88
2017-12-25T16:33:17.222Z,38.50
2017-12-25T16:35:44.723Z,39.92
2017-12-25T16:38:12.189Z,36.35
2017-12-25T16:40:39.715Z,40.50
2017-12-25T16:43:07.943Z,45.12
2017-12-25T16:45:35.413Z,33.38
2017-12-25T16:48:02.923Z,35.05
2017-12-25T16:50:30.399Z,42.25
2017-12-25T16:52:57.929Z,37.58
2017-12-25T16:55:26.750Z,33.70
2017-12-25T16:57:54.280Z,32.50
2017-12-25T17:00:22.543Z,33.15
2017-12-25T17:02:50.082Z,32.40
2017-12-25T17:05:17.563Z,33.65
2017-12-25T17:07:45.077Z,36.72
2017-12-25T17:10:12.566Z,33.95
2017-12-25T17:12:40.036Z,34.85
2017-12-25T17:15:07.537Z,33.72
2017-12-25T17:17:35.015Z,41.30
2017-12-25T17:20:02.536Z,41.70
2017-12-25T17:22:30.779Z,46.53
2017-12-25T17:24:58.309Z,41.97
2017-12-25T17:27:25.791Z,40.10
2017-12-25T17:29:54.052Z,44.88
2017-12-25T17:32:21.559Z,40.28
2017-12-25T17:34:49.807Z,41.10
2017-12-25T17:37:17.299Z,46.55
2017-12-25T17:39:45.531Z,39.03
2017-12-25T17:42:13.020Z,40.70
2017-12-25T17:44:41.293Z,49.42
2017-12-25T17:47:09.551Z,42.17
2017-12-25T17:49:37.066Z,44.30
2017-12-25T17:52:04.574Z,49.17
2017-12-25T17:54:32.056Z,49.38
2017-12-25T17:57:00.287Z,48.92
2017-12-25T17:59:27.816Z,55.05
2017-12-25T18:01:55.286Z,47.40
2017-12-25T18:04:22.818Z,47.60
2017-12-25T18:06:51.055Z,43.60
2017-12-25T18:09:18.518Z,44.80
2017-12-25T18:11:46.042Z,49.25
2017-12-25T18:14:13.517Z,42.62
2017-12-25T18:16:41.059Z,42.25
2017-12-25T18:19:08.539Z,53.13
2017-12-25T18:21:36.005Z,45.47
2017-12-25T18:24:03.503Z,43.15
2017-12-25T18:26:31.747Z,49.88
2017-12-25T18:28:59.249Z,47.78
2017-12-25T18:31:26.722Z,41.70
2017-12-25T18:33:54.218Z,47.22
2017-12-25T18:36:21.690Z,42.25
2017-12-25T18:38:49.189Z,45.38
2017-12-25T18:41:16.681Z,47.28
2017-12-25T18:43:44.187Z,41.65
2017-12-25T18:46:12.463Z,39.70
2017-12-25T18:48:40.713Z,39.85
2017-12-25T18:51:08.179Z,44.40
2017-12-25T18:53:36.459Z,43.90
2017-12-25T18:56:03.989Z,55.17
2017-12-25T18:58:31.447Z,60.40
2017-12-25T19:00:58.994Z,64.18
2017-12-25T19:03:26.466Z,54.90
2017-12-25T19:05:53.942Z,54.40
2017-12-25T19:08:21.475Z,62.92
2017-12-25T19:10:48.942Z,56.92
2017-12-25T19:13:16.406Z,59.67
2017-12-25T19:15:43.894Z,63.17
2017-12-25T19:18:12.129Z,62.83
2017-12-25T19:20:39.631Z,66.55
2017-12-25T19:23:07.881Z,59.60
2017-12-25T19:25:35.382Z,60.90
2017-12-25T19:28:03.612Z,76.82
2017-12-25T19:30:31.082Z,66.53
2017-12-25T19:32:58.601Z,67.45
2017-12-25T19:35:26.086Z,61.83
2017-12-25T19:37:53.616Z,68.30
2017-12-25T19:40:21.099Z,62.60
2017-12-25T19:42:48.625Z,58.65
2017-12-25T19:45:16.083Z,59.00
2017-12-25T19:47:43.618Z,67.15
2017-12-25T19:50:11.871Z,99.40
2017-12-25T19:52:39.368Z,73.55
2017-12-25T19:55:07.643Z,60.58
2017-12-25T19:57:35.880Z,68.05
2017-12-25T20:00:03.389Z,111.05
2017-12-25T20:02:30.885Z,89.45
2017-12-25T20:04:58.386Z,51.85
2017-12-25T20:07:26.667Z,59.22
2017-12-25T20:09:54.930Z,53.40
2017-12-25T20:12:22.428Z,50.40
2017-12-25T20:14:49.920Z,68.37
2017-12-25T20:17:17.421Z,46.72
2017-12-25T20:19:45.676Z,63.45
2017-12-25T20:22:13.140Z,65.45
2017-12-25T20:24:40.658Z,54.65
2017-12-25T20:27:08.119Z,47.17
2017-12-25T20:29:35.628Z,48.90
2017-12-25T20:32:03.868Z,73.55
2017-12-25T20:34:31.374Z,83.87
2017-12-25T20:36:59.635Z,41.55
2017-12-25T20:39:27.889Z,63.85
2017-12-25T20:41:55.390Z,49.92
2017-12-25T20:44:22.874Z,72.35
2017-12-25T20:46:50.367Z,82.65
2017-12-25T20:49:17.915Z,97.90
2017-12-25T20:51:45.362Z,46.33
2017-12-25T20:54:12.843Z,44.00
2017-12-25T20:56:42.006Z,38.35
2017-12-25T20:59:19.587Z,51.20
2017-12-25T21:01:49.962Z,47.17
2017-12-25T21:04:23.316Z,43.20
2017-12-25T21:09:48.118Z,48.15
2017-12-25T21:12:15.595Z,61.88
2017-12-25T21:14:43.107Z,47.42
2017-12-25T21:17:10.574Z,63.13
2017-12-25T21:19:38.818Z,60.05
2017-12-25T21:22:06.329Z,61.42
2017-12-25T21:24:33.814Z,67.90
2017-12-25T21:27:01.313Z,44.30
2017-12-25T21:29:28.793Z,64.70
2017-12-25T21:31:57.069Z,49.58
2017-12-25T21:34:25.330Z,42.83
2017-12-25T21:36:52.806Z,41.00
2017-12-25T21:39:21.076Z,64.43
2017-12-25T21:41:49.362Z,78.07
2017-12-25T21:44:17.636Z,31.73
2017-12-25T21:46:45.910Z,34.75
2017-12-25T21:49:14.187Z,64.82
2017-12-25T21:51:42.488Z,42.70
2017-12-25T21:54:09.954Z,82.05
2017-12-25T21:56:37.444Z,34.47
2017-12-25T21:59:04.910Z,72.40
2017-12-25T22:01:32.477Z,57.88
2017-12-25T22:03:59.950Z,37.22
2017-12-25T22:06:28.198Z,36.90
2017-12-25T22:08:55.708Z,39.15
2017-12-25T22:11:23.171Z,41.50
2017-12-25T22:13:50.686Z,40.45
2017-12-25T22:16:18.164Z,40.45
2017-12-25T22:18:46.407Z,60.55
2017-12-25T22:21:13.914Z,53.22
2017-12-25T22:23:42.164Z,45.92
2017-12-25T22:26:09.675Z,34.30
2017-12-25T22:28:37.141Z,33.00
2017-12-25T22:31:04.630Z,39.72
2017-12-25T22:33:32.108Z,63.78
2017-12-25T22:36:00.400Z,106.45
2017-12-25T22:38:27.941Z,52.10
2017-12-25T22:40:55.417Z,42.47
2017-12-25T22:43:23.720Z,35.03
2017-12-25T22:45:51.206Z,38.15
2017-12-25T22:48:18.710Z,38.47
2017-12-25T22:50:46.983Z,36.78
2017-12-25T22:53:15.214Z,31.55
2017-12-25T22:55:42.766Z,36.17
2017-12-25T22:58:10.230Z,34.65
2017-12-25T23:00:37.718Z,31.87
2017-12-25T23:03:05.219Z,32.35
2017-12-25T23:05:32.700Z,41.75
2017-12-25T23:08:00.201Z,40.55
2017-12-25T23:10:27.665Z,39.28
2017-12-25T23:12:55.907Z,41.78
2017-12-25T23:15:23.419Z,43.45
2017-12-25T23:17:51.675Z,36.33
2017-12-25T23:20:19.951Z,37.55
2017-12-25T23:22:48.178Z,32.67
2017-12-25T23:25:15.670Z,45.78
2017-12-25T23:27:43.939Z,34.90
2017-12-25T23:30:11.425Z,40.78
2017-12-25T23:32:39.695Z,61.58
2017-12-25T23:35:07.955Z,151.95
2017-12-25T23:37:35.422Z,56.72
2017-12-25T23:40:02.931Z,87.43
2017-12-25T23:42:30.419Z,34.95
2017-12-25T23:44:57.950Z,48.13
2017-12-25T23:47:25.430Z,42.35
2017-12-25T23:49:52.935Z,48.42
2017-12-25T23:52:21.173Z,39.33
2017-12-25T23:54:48.631Z,31.55
2017-12-25T23:57:16.137Z,31.80
2017-12-25T23:59:44.358Z,64.72
